Time;durP1;ratioP1;P1;durP2;ratioP2;P2;SDS_P1;SDS_P2;PMS_P1;PMS_P2;Temp;Humidity;BMP_temperature;BMP_pressure;BME280_temperature;BME280_humidity;BME280_pressure;Samples;Min_cycle;Max_cycle;Signal;HPM_P1;HPM_P2
2023/09/12 00:00:48;;;;;;;15.52;5.10;;;20.00;99.90;;;;;;5070275;28;20070;-78
2023/09/12 00:03:19;;;;;;;9.90;4.72;;;19.90;99.90;;;;;;5070158;28;20045;-78
2023/09/12 00:05:55;;;;;;;9.75;4.47;;;20.00;99.90;;;;;;5074457;28;22925;-78
2023/09/12 00:08:23;;;;;;;12.27;5.13;;;20.00;99.90;;;;;;5072369;28;20044;-78
2023/09/12 00:11:04;;;;;;;9.60;4.70;;;19.90;99.90;;;;;;5072596;28;20134;-77
2023/09/12 00:13:32;;;;;;;14.97;4.37;;;19.90;99.90;;;;;;5077156;28;20044;-78
2023/09/12 00:15:59;;;;;;;11.90;4.78;;;19.90;99.90;;;;;;5061450;28;20790;-78
2023/09/12 00:18:26;;;;;;;18.30;5.68;;;19.80;99.90;;;;;;5062527;28;20048;-78
2023/09/12 00:20:54;;;;;;;16.92;5.05;;;19.70;99.90;;;;;;5080628;28;20578;-78
2023/09/12 00:23:25;;;;;;;14.32;5.50;;;19.70;99.90;;;;;;5067208;28;20048;-78
2023/09/12 00:25:52;;;;;;;12.50;5.03;;;19.80;99.90;;;;;;5073526;28;23016;-78
2023/09/12 00:28:20;;;;;;;10.98;5.38;;;19.70;99.90;;;;;;5080649;28;20028;-78
2023/09/12 00:30:47;;;;;;;13.68;4.72;;;19.70;99.90;;;;;;5062671;28;20056;-78
2023/09/12 00:33:15;;;;;;;9.90;4.32;;;19.70;99.90;;;;;;5094653;28;20153;-78
2023/09/12 00:35:44;;;;;;;11.60;5.10;;;19.70;99.90;;;;;;5078274;28;20475;-78
2023/09/12 00:38:11;;;;;;;14.52;5.40;;;19.70;99.90;;;;;;5080014;28;20044;-78
2023/09/12 00:40:38;;;;;;;12.32;4.50;;;19.70;99.90;;;;;;5077573;28;20589;-78
2023/09/12 00:43:05;;;;;;;9.05;4.28;;;19.60;99.90;;;;;;5061294;28;20129;-78
2023/09/12 00:45:32;;;;;;;10.70;4.95;;;19.60;99.90;;;;;;5075124;28;20548;-78
2023/09/12 00:48:03;;;;;;;11.68;5.22;;;19.70;99.90;;;;;;5082888;28;20040;-78
2023/09/12 00:50:32;;;;;;;12.18;5.32;;;19.60;99.90;;;;;;5082707;28;20072;-78
2023/09/12 00:53:00;;;;;;;9.48;4.78;;;19.60;99.90;;;;;;5061125;28;20123;-78
2023/09/12 00:55:31;;;;;;;15.32;5.32;;;19.60;99.90;;;;;;5075406;28;20041;-78
2023/09/12 00:57:58;;;;;;;9.55;4.47;;;19.50;99.90;;;;;;5077951;28;20060;-78
2023/09/12 01:00:25;;;;;;;10.23;4.55;;;19.50;99.90;;;;;;5062346;28;20059;-78
2023/09/12 01:02:54;;;;;;;8.48;4.43;;;19.50;99.90;;;;;;5074917;28;20410;-78
2023/09/12 01:05:22;;;;;;;12.15;5.38;;;19.50;99.90;;;;;;5075072;28;20052;-78
2023/09/12 01:07:49;;;;;;;10.32;5.00;;;19.40;99.90;;;;;;5091973;28;20048;-78
2023/09/12 01:10:17;;;;;;;12.73;5.40;;;19.40;99.90;;;;;;5088349;28;20445;-78
2023/09/12 01:12:45;;;;;;;10.30;4.78;;;19.40;99.90;;;;;;5076594;28;20032;-78
2023/09/12 01:15:15;;;;;;;10.85;4.80;;;19.40;99.90;;;;;;5093441;28;20143;-78
2023/09/12 01:17:46;;;;;;;15.25;5.50;;;19.40;99.90;;;;;;5083258;28;20044;-77
2023/09/12 01:20:19;;;;;;;10.82;4.82;;;19.30;99.90;;;;;;5074002;28;20422;-78
2023/09/12 01:23:15;;;;;;;17.63;6.90;;;19.30;99.90;;;;;;5081203;28;20098;-78
2023/09/12 01:26:02;;;;;;;9.02;4.20;;;19.30;99.90;;;;;;5068471;28;20698;-78
2023/09/12 01:28:34;;;;;;;9.52;4.70;;;19.30;99.90;;;;;;5085008;28;20060;-78
2023/09/12 01:31:03;;;;;;;10.25;5.05;;;19.20;99.90;;;;;;5081628;28;20067;-78
2023/09/12 01:33:30;;;;;;;12.95;4.78;;;19.20;99.90;;;;;;5085530;28;20151;-78
2023/09/12 01:35:59;;;;;;;11.27;5.05;;;19.20;99.90;;;;;;5080445;28;20072;-78
2023/09/12 01:38:27;;;;;;;12.93;4.50;;;19.20;99.90;;;;;;5076858;28;20045;-78
2023/09/12 01:40:55;;;;;;;10.32;4.15;;;19.20;99.90;;;;;;5083992;28;20423;-78
2023/09/12 01:43:26;;;;;;;11.15;6.10;;;19.20;99.90;;;;;;5074772;28;20090;-78
2023/09/12 01:45:55;;;;;;;11.65;5.75;;;19.10;99.90;;;;;;5077290;28;20044;-78
2023/09/12 01:48:26;;;;;;;15.02;5.53;;;19.10;99.90;;;;;;5073802;28;20067;-78
2023/09/12 01:50:54;;;;;;;9.50;4.68;;;19.00;99.90;;;;;;5083929;28;20051;-78
2023/09/12 01:53:21;;;;;;;11.93;5.00;;;19.10;99.90;;;;;;5077507;28;20094;-78
2023/09/12 01:55:49;;;;;;;12.98;5.35;;;19.00;99.90;;;;;;5074130;28;20587;-78
2023/09/12 01:58:16;;;;;;;10.63;5.40;;;19.00;99.90;;;;;;5083119;28;20045;-78
2023/09/12 02:00:45;;;;;;;11.20;5.05;;;19.00;99.90;;;;;;5076091;28;20056;-78
2023/09/12 02:03:12;;;;;;;10.93;5.03;;;19.00;99.90;;;;;;5094032;28;20437;-78
2023/09/12 02:05:40;;;;;;;14.52;5.65;;;18.90;99.90;;;;;;5082200;28;20130;-78
2023/09/12 02:08:07;;;;;;;15.48;5.53;;;18.90;99.90;;;;;;5086821;28;20040;-78
2023/09/12 02:10:34;;;;;;;13.85;5.28;;;18.90;99.90;;;;;;5083141;28;20040;-78
2023/09/12 02:13:01;;;;;;;15.00;5.10;;;18.80;99.90;;;;;;5080071;28;20048;-78
2023/09/12 02:15:28;;;;;;;12.98;5.57;;;18.80;99.90;;;;;;5067910;28;20138;-78
2023/09/12 02:17:56;;;;;;;10.45;6.13;;;18.80;99.90;;;;;;5074561;28;20161;-78
2023/09/12 02:20:23;;;;;;;14.00;5.63;;;18.80;99.90;;;;;;5064786;28;20067;-78
2023/09/12 02:22:50;;;;;;;13.93;5.90;;;18.80;99.90;;;;;;5082812;28;20040;-78
2023/09/12 02:25:17;;;;;;;13.70;5.95;;;18.70;99.90;;;;;;5076956;28;20039;-78
2023/09/12 02:27:47;;;;;;;11.13;5.78;;;18.80;99.90;;;;;;5067287;28;20040;-78
2023/09/12 02:30:14;;;;;;;9.65;4.80;;;18.70;99.90;;;;;;5078161;28;20072;-78
2023/09/12 02:32:42;;;;;;;8.73;4.80;;;18.80;99.90;;;;;;5091264;28;20044;-78
2023/09/12 02:35:10;;;;;;;12.63;5.13;;;18.70;99.90;;;;;;5067278;28;20056;-78
2023/09/12 02:37:37;;;;;;;13.95;5.20;;;18.70;99.90;;;;;;5096287;28;20167;-78
2023/09/12 02:40:05;;;;;;;14.68;5.75;;;18.70;99.90;;;;;;5061960;28;20040;-78
2023/09/12 02:42:33;;;;;;;12.40;5.70;;;18.70;99.90;;;;;;5064116;28;20066;-78
2023/09/12 02:45:00;;;;;;;15.35;5.75;;;18.60;99.90;;;;;;5066599;28;20117;-78
2023/09/12 02:47:27;;;;;;;13.15;5.30;;;18.60;99.90;;;;;;5063178;28;20516;-78
2023/09/12 02:49:54;;;;;;;15.38;6.25;;;18.60;99.90;;;;;;5081812;28;20048;-78
2023/09/12 02:52:21;;;;;;;17.17;5.80;;;18.60;99.90;;;;;;5082877;28;20131;-78
2023/09/12 02:54:48;;;;;;;16.98;5.80;;;18.60;99.90;;;;;;5081052;28;20163;-78
2023/09/12 02:57:16;;;;;;;13.57;5.45;;;18.60;99.90;;;;;;5066914;28;20130;-78
2023/09/12 02:59:44;;;;;;;14.15;5.32;;;18.50;99.90;;;;;;5064778;28;20139;-78
2023/09/12 03:02:11;;;;;;;11.77;5.30;;;18.60;99.90;;;;;;5076263;28;21065;-78
2023/09/12 03:04:38;;;;;;;11.30;4.82;;;18.50;99.90;;;;;;5086379;28;20048;-78
2023/09/12 03:07:05;;;;;;;11.68;5.30;;;18.50;99.90;;;;;;5081465;28;22346;-78
2023/09/12 03:09:33;;;;;;;10.77;5.05;;;18.50;99.90;;;;;;5073971;28;20161;-78
2023/09/12 03:12:04;;;;;;;11.13;4.88;;;18.50;99.90;;;;;;5077196;28;20067;-78
2023/09/12 03:14:32;;;;;;;11.30;5.73;;;18.50;99.90;;;;;;5091296;28;20134;-78
2023/09/12 03:16:59;;;;;;;17.23;5.78;;;18.40;99.90;;;;;;5073142;28;20044;-78
2023/09/12 03:19:27;;;;;;;10.05;4.47;;;18.40;99.90;;;;;;5062664;28;20044;-78
2023/09/12 03:21:54;;;;;;;12.70;5.55;;;18.40;99.90;;;;;;5060938;28;20036;-78
2023/09/12 03:24:24;;;;;;;14.05;5.15;;;18.40;99.90;;;;;;5073005;28;20091;-78
2023/09/12 03:26:52;;;;;;;11.52;4.80;;;18.40;99.90;;;;;;5091945;28;20044;-78
2023/09/12 03:29:19;;;;;;;13.85;4.93;;;18.40;99.90;;;;;;5074911;28;20300;-78
2023/09/12 03:31:47;;;;;;;16.77;5.95;;;18.30;99.90;;;;;;5070471;28;20541;-78
2023/09/12 03:34:14;;;;;;;11.35;5.55;;;18.30;99.90;;;;;;5074041;28;20086;-78
2023/09/12 03:36:42;;;;;;;16.02;5.55;;;18.30;99.90;;;;;;5075832;28;20051;-78
2023/09/12 03:39:09;;;;;;;10.02;5.38;;;18.30;99.90;;;;;;5073398;28;20048;-78
2023/09/12 03:41:36;;;;;;;13.60;5.45;;;18.20;99.90;;;;;;5062622;28;20048;-78
2023/09/12 03:44:04;;;;;;;10.55;5.30;;;18.20;99.90;;;;;;5076893;28;20147;-78
2023/09/12 03:46:31;;;;;;;13.25;5.13;;;18.20;99.90;;;;;;5064659;28;20052;-78
2023/09/12 03:48:58;;;;;;;12.57;5.07;;;18.30;99.90;;;;;;5078277;28;20055;-78
2023/09/12 03:51:25;;;;;;;12.27;5.22;;;18.20;99.90;;;;;;5082154;28;20089;-79
2023/09/12 03:53:52;;;;;;;12.88;5.20;;;18.20;99.90;;;;;;5064157;28;20036;-78
2023/09/12 03:56:20;;;;;;;14.63;5.70;;;18.20;99.90;;;;;;5060277;28;20044;-78
2023/09/12 03:58:47;;;;;;;11.95;5.38;;;18.10;99.90;;;;;;5095144;28;20067;-78
2023/09/12 04:01:14;;;;;;;15.30;5.30;;;18.10;99.90;;;;;;5092981;28;20029;-78
2023/09/12 04:03:42;;;;;;;10.82;4.32;;;18.10;99.90;;;;;;5079733;28;20052;-79
2023/09/12 04:06:09;;;;;;;12.35;5.40;;;18.10;99.90;;;;;;5078103;28;20135;-79
2023/09/12 04:08:37;;;;;;;10.93;5.55;;;18.10;99.90;;;;;;5064140;28;20117;-79
2023/09/12 04:11:04;;;;;;;15.52;6.38;;;18.10;99.90;;;;;;5095348;28;20113;-79
2023/09/12 04:13:31;;;;;;;10.05;5.57;;;18.10;99.90;;;;;;5060245;28;20053;-79
2023/09/12 04:15:58;;;;;;;11.95;5.68;;;18.10;99.90;;;;;;5076638;28;20554;-78
2023/09/12 04:18:26;;;;;;;14.55;5.35;;;18.10;99.90;;;;;;5072870;28;20047;-78
2023/09/12 04:20:57;;;;;;;17.40;5.70;;;18.00;99.90;;;;;;5063260;28;20044;-78
2023/09/12 04:23:25;;;;;;;11.73;5.55;;;18.00;99.90;;;;;;5076688;28;20045;-78
2023/09/12 04:25:52;;;;;;;14.10;5.13;;;18.00;99.90;;;;;;5090046;28;20043;-78
2023/09/12 04:28:20;;;;;;;14.50;5.90;;;18.00;99.90;;;;;;5075677;28;20040;-79
2023/09/12 04:30:47;;;;;;;18.85;5.88;;;18.00;99.90;;;;;;5073094;28;22838;-79
2023/09/12 04:33:14;;;;;;;13.90;5.10;;;18.00;99.90;;;;;;5082717;28;20048;-78
2023/09/12 04:35:41;;;;;;;13.55;5.80;;;18.00;99.90;;;;;;5077075;28;20036;-78
2023/09/12 04:38:09;;;;;;;11.75;5.72;;;18.00;99.90;;;;;;5078487;28;20112;-79
2023/09/12 04:40:37;;;;;;;13.88;5.55;;;18.10;99.90;;;;;;5063607;28;20072;-79
2023/09/12 04:43:04;;;;;;;12.68;5.07;;;18.00;99.90;;;;;;5064641;28;20040;-79
2023/09/12 04:45:33;;;;;;;9.90;4.95;;;18.00;99.90;;;;;;5082940;28;20105;-78
2023/09/12 04:48:02;;;;;;;12.88;5.07;;;18.10;99.90;;;;;;5062222;28;20048;-78
2023/09/12 04:50:29;;;;;;;17.25;5.97;;;18.00;99.90;;;;;;5079823;28;20515;-78
2023/09/12 04:52:56;;;;;;;14.70;6.40;;;18.10;99.90;;;;;;5064385;28;20054;-78
2023/09/12 04:55:23;;;;;;;13.07;5.53;;;18.10;99.90;;;;;;5065998;28;20064;-78
2023/09/12 04:57:50;;;;;;;14.45;6.20;;;18.00;99.90;;;;;;5094093;28;20036;-78
2023/09/12 05:00:18;;;;;;;13.57;6.43;;;18.10;99.90;;;;;;5074964;28;20063;-78
2023/09/12 05:02:45;;;;;;;15.75;6.10;;;18.10;99.90;;;;;;5079269;28;20126;-79
2023/09/12 05:05:12;;;;;;;12.65;6.07;;;18.00;99.90;;;;;;5088429;27;20044;-80
2023/09/12 05:07:39;;;;;;;15.13;5.78;;;18.10;99.90;;;;;;5083696;28;20133;-80
2023/09/12 05:10:07;;;;;;;12.27;5.32;;;18.10;99.90;;;;;;5083248;28;20048;-80
2023/09/12 05:12:36;;;;;;;17.15;6.57;;;18.20;99.90;;;;;;5076772;28;20075;-80
2023/09/12 05:15:03;;;;;;;16.33;6.28;;;18.20;99.90;;;;;;5082424;28;20125;-80
2023/09/12 05:17:30;;;;;;;15.85;6.30;;;18.20;99.90;;;;;;5074202;28;20051;-80
2023/09/12 05:19:57;;;;;;;14.68;5.40;;;18.30;99.90;;;;;;5084010;28;20044;-80
2023/09/12 05:22:24;;;;;;;15.10;6.30;;;18.30;99.90;;;;;;5066909;28;20044;-80
2023/09/12 05:24:52;;;;;;;14.20;6.22;;;18.30;99.90;;;;;;5079304;28;20040;-80
2023/09/12 05:27:19;;;;;;;12.02;5.50;;;18.30;99.90;;;;;;5070441;28;22465;-80
2023/09/12 05:29:46;;;;;;;10.45;5.53;;;18.40;99.90;;;;;;5084896;28;20072;-80
2023/09/12 05:32:13;;;;;;;18.70;6.18;;;18.40;99.90;;;;;;5068824;28;20058;-80
2023/09/12 05:34:40;;;;;;;13.68;6.68;;;18.50;99.90;;;;;;5074347;28;20044;-80
2023/09/12 05:37:08;;;;;;;15.48;5.85;;;18.50;99.90;;;;;;5084355;28;20044;-80
2023/09/12 05:39:35;;;;;;;13.73;6.13;;;18.50;99.90;;;;;;5067589;28;20039;-81
2023/09/12 05:42:03;;;;;;;12.95;5.78;;;18.60;99.90;;;;;;5078109;28;20036;-80
2023/09/12 05:44:30;;;;;;;14.20;5.85;;;18.70;99.90;;;;;;5069161;28;20406;-80
2023/09/12 05:46:57;;;;;;;15.43;6.60;;;18.70;99.90;;;;;;5057037;28;20518;-79
2023/09/12 05:49:24;;;;;;;13.73;6.18;;;18.70;99.90;;;;;;5077754;28;20052;-80
2023/09/12 05:51:52;;;;;;;15.32;5.90;;;18.80;99.90;;;;;;5082374;28;20068;-79
2023/09/12 05:54:19;;;;;;;17.13;6.80;;;18.80;99.90;;;;;;5077385;28;20912;-80
2023/09/12 05:56:48;;;;;;;25.10;7.00;;;18.90;99.90;;;;;;5080748;28;20886;-79
2023/09/12 05:59:15;;;;;;;16.02;6.40;;;19.00;99.90;;;;;;5081057;28;20060;-79
2023/09/12 06:01:42;;;;;;;15.60;6.85;;;19.00;99.90;;;;;;5067913;28;20040;-79
2023/09/12 06:04:10;;;;;;;17.23;7.13;;;19.10;99.90;;;;;;5082193;28;22885;-79
2023/09/12 06:06:38;;;;;;;17.77;6.70;;;19.20;99.90;;;;;;5074197;28;20048;-79
2023/09/12 06:09:06;;;;;;;16.63;7.00;;;19.30;99.90;;;;;;5063769;28;20920;-79
2023/09/12 06:11:33;;;;;;;15.63;6.30;;;19.40;99.90;;;;;;5093224;28;20048;-79
2023/09/12 06:14:00;;;;;;;14.90;5.97;;;19.40;99.90;;;;;;5081606;28;20048;-79
2023/09/12 06:16:27;;;;;;;18.83;6.70;;;19.50;99.90;;;;;;5062274;28;20052;-79
2023/09/12 06:18:55;;;;;;;14.82;6.95;;;19.60;99.90;;;;;;5082750;28;20037;-79
2023/09/12 06:21:22;;;;;;;13.18;6.00;;;19.80;99.90;;;;;;5080309;28;20032;-79
2023/09/12 06:24:11;;;;;;;15.98;6.70;;;19.90;99.90;;;;;;5075541;28;20048;-79
2023/09/12 06:26:39;;;;;;;19.52;7.28;;;20.00;99.90;;;;;;5077278;28;20409;-79
2023/09/12 06:29:06;;;;;;;15.05;6.60;;;20.10;99.90;;;;;;5092636;28;20447;-79
2023/09/12 06:31:35;;;;;;;13.35;6.32;;;20.20;99.90;;;;;;5076215;28;20043;-79
2023/09/12 06:34:02;;;;;;;16.00;6.15;;;20.20;99.90;;;;;;5068933;28;20051;-79
2023/09/12 06:36:30;;;;;;;16.63;6.25;;;20.30;99.90;;;;;;5083090;28;20136;-79
2023/09/12 06:38:57;;;;;;;13.52;6.28;;;20.30;99.90;;;;;;5077355;28;20048;-79
2023/09/12 06:41:26;;;;;;;21.67;6.72;;;20.50;99.90;;;;;;5059856;28;20040;-79
2023/09/12 06:43:56;;;;;;;20.70;7.43;;;20.60;99.90;;;;;;5093338;28;20124;-79
2023/09/12 06:46:24;;;;;;;20.80;6.43;;;20.70;99.90;;;;;;5079316;28;20052;-79
2023/09/12 06:48:52;;;;;;;16.48;6.78;;;20.70;99.20;;;;;;5064592;28;20490;-78
2023/09/12 06:51:24;;;;;;;14.80;6.57;;;20.80;99.90;;;;;;5080335;28;22830;-78
2023/09/12 06:53:52;;;;;;;16.88;6.05;;;20.90;98.80;;;;;;5075307;28;20040;-80
2023/09/12 06:56:21;;;;;;;14.82;6.38;;;21.00;98.00;;;;;;5062846;28;22850;-79
2023/09/12 06:58:48;;;;;;;14.23;7.25;;;21.20;98.20;;;;;;5088160;28;20117;-78
2023/09/12 07:01:15;;;;;;;16.52;6.90;;;21.30;98.00;;;;;;5082535;28;20048;-79
2023/09/12 07:03:42;;;;;;;16.80;6.72;;;21.30;98.20;;;;;;5063777;28;20060;-79
2023/09/12 07:06:10;;;;;;;12.93;6.90;;;21.40;98.40;;;;;;5079400;28;20041;-79
2023/09/12 07:08:37;;;;;;;22.75;8.52;;;21.50;98.20;;;;;;5051329;28;20091;-81
2023/09/12 07:11:06;;;;;;;17.45;7.78;;;21.60;97.80;;;;;;5075328;28;20060;-79
2023/09/12 07:13:33;;;;;;;18.60;6.85;;;21.70;98.00;;;;;;5062557;28;20051;-81
2023/09/12 07:16:03;;;;;;;19.83;7.88;;;21.80;98.10;;;;;;5062527;28;20031;-80
2023/09/12 07:18:34;;;;;;;23.80;7.55;;;21.90;97.30;;;;;;5060511;28;20102;-78
2023/09/12 07:21:03;;;;;;;18.40;7.97;;;21.90;96.40;;;;;;5062603;28;20218;-78
2023/09/12 07:23:30;;;;;;;17.30;7.93;;;22.10;97.00;;;;;;5061409;28;20491;-78
2023/09/12 07:25:58;;;;;;;17.30;6.65;;;22.20;97.10;;;;;;5069945;28;20048;-79
2023/09/12 07:28:30;;;;;;;21.38;7.65;;;22.30;96.60;;;;;;5079416;28;20044;-78
2023/09/12 07:30:57;;;;;;;15.07;6.40;;;22.40;97.00;;;;;;5074114;28;20052;-78
2023/09/12 07:33:25;;;;;;;15.73;7.20;;;22.50;96.50;;;;;;5076358;28;20067;-78
2023/09/12 07:35:52;;;;;;;17.95;7.13;;;22.60;96.20;;;;;;5071082;28;20037;-78
2023/09/12 07:38:21;;;;;;;16.83;7.35;;;22.70;95.30;;;;;;5075680;28;20486;-78
2023/09/12 07:40:48;;;;;;;14.10;6.43;;;22.80;95.10;;;;;;5063219;28;20052;-79
2023/09/12 07:43:16;;;;;;;17.42;7.10;;;22.90;95.50;;;;;;5089515;28;20097;-78
2023/09/12 07:45:43;;;;;;;13.23;6.53;;;22.90;94.20;;;;;;5077416;28;20442;-79
2023/09/12 07:48:13;;;;;;;13.30;6.32;;;23.10;94.60;;;;;;5075462;28;20421;-79
2023/09/12 07:50:42;;;;;;;8.80;5.50;;;23.20;94.30;;;;;;5077989;28;20117;-79
2023/09/12 07:53:09;;;;;;;15.27;6.28;;;23.30;93.40;;;;;;5069272;28;20175;-77
2023/09/12 07:55:45;;;;;;;9.77;5.47;;;23.30;93.50;;;;;;5070961;28;20090;-79
2023/09/12 07:58:18;;;;;;;9.32;5.25;;;23.50;93.30;;;;;;5079399;28;20498;-78
2023/09/12 08:00:47;;;;;;;11.52;5.50;;;23.60;93.40;;;;;;5066545;28;20044;-79
2023/09/12 08:03:15;;;;;;;13.10;5.72;;;23.80;92.50;;;;;;5079119;28;20379;-78
2023/09/12 08:05:42;;;;;;;12.32;5.47;;;23.80;91.80;;;;;;5074028;28;20098;-78
2023/09/12 08:08:10;;;;;;;9.80;5.50;;;24.00;91.50;;;;;;5081177;28;20046;-78
2023/09/12 08:10:37;;;;;;;9.73;5.03;;;24.00;91.30;;;;;;5096912;28;20119;-80
2023/09/12 08:13:04;;;;;;;10.23;4.93;;;24.10;90.90;;;;;;5078720;28;20044;-78
2023/09/12 08:15:31;;;;;;;10.65;4.88;;;24.20;91.10;;;;;;5073475;28;20100;-80
2023/09/12 08:17:58;;;;;;;9.20;5.35;;;24.30;90.60;;;;;;5064156;28;20044;-78
2023/09/12 08:20:26;;;;;;;11.65;5.53;;;24.40;90.10;;;;;;5078760;28;20101;-79
2023/09/12 08:22:53;;;;;;;6.45;4.82;;;24.50;90.70;;;;;;5083234;28;20985;-79
2023/09/12 08:25:21;;;;;;;14.68;6.13;;;24.60;90.10;;;;;;5081415;28;20585;-79
2023/09/12 08:27:48;;;;;;;9.70;4.63;;;24.60;89.40;;;;;;5077269;28;20897;-79
2023/09/12 08:30:16;;;;;;;11.27;5.15;;;24.70;90.20;;;;;;5084279;28;20059;-78
2023/09/12 08:32:43;;;;;;;9.68;4.80;;;24.80;90.30;;;;;;5066716;28;20048;-78
2023/09/12 08:35:12;;;;;;;11.30;5.40;;;24.90;89.10;;;;;;5079793;28;20108;-77
2023/09/12 08:37:41;;;;;;;9.63;4.90;;;25.00;87.90;;;;;;5084053;28;20045;-77
2023/09/12 08:40:10;;;;;;;9.57;4.82;;;24.90;87.70;;;;;;5073411;28;20046;-78
2023/09/12 08:42:43;;;;;;;8.23;4.97;;;25.00;86.50;;;;;;5077299;28;20487;-77
2023/09/12 08:45:15;;;;;;;8.88;4.60;;;25.20;87.70;;;;;;5080750;28;20055;-78
2023/09/12 08:47:44;;;;;;;7.03;4.15;;;25.30;87.40;;;;;;5080615;28;20125;-79
2023/09/12 08:50:14;;;;;;;6.93;3.65;;;25.40;88.50;;;;;;5081531;28;20093;-79
2023/09/12 08:52:42;;;;;;;9.40;5.32;;;25.40;85.10;;;;;;5078627;28;20063;-78
2023/09/12 08:55:33;;;;;;;8.55;4.80;;;25.50;86.00;;;;;;5075915;28;20040;-78
2023/09/12 08:58:02;;;;;;;9.98;4.18;;;25.50;85.50;;;;;;5074454;28;20043;-78
2023/09/12 09:00:30;;;;;;;7.03;4.00;;;25.60;84.20;;;;;;5078588;28;22795;-78
2023/09/12 09:02:58;;;;;;;8.10;4.20;;;25.60;84.50;;;;;;5084011;28;20036;-78
2023/09/12 09:05:27;;;;;;;8.18;4.00;;;25.80;84.20;;;;;;5078913;28;20166;-81
2023/09/12 09:07:55;;;;;;;7.15;4.10;;;25.90;84.50;;;;;;5062910;28;20052;-77
2023/09/12 09:10:23;;;;;;;8.25;3.65;;;25.90;83.70;;;;;;5077867;28;20429;-78
2023/09/12 09:13:09;;;;;;;9.18;3.47;;;25.90;83.00;;;;;;5080498;28;20052;-80
2023/09/12 09:15:41;;;;;;;8.18;4.07;;;26.00;80.40;;;;;;5082167;28;20437;-78
2023/09/12 09:18:10;;;;;;;;;;;26.00;82.10;;;;;;5077744;28;20398;-80
2023/09/12 09:20:39;;;;;;;7.10;3.67;;;26.00;80.70;;;;;;5079648;28;19919;-79
2023/09/12 09:23:09;;;;;;;8.73;4.45;;;26.10;80.10;;;;;;5081964;28;20080;-80
2023/09/12 09:25:40;;;;;;;7.35;3.28;;;26.20;77.20;;;;;;5065276;28;20052;-78
2023/09/12 09:28:18;;;;;;;5.15;3.47;;;26.10;78.20;;;;;;5089561;28;20482;-78
2023/09/12 09:30:47;;;;;;;6.32;2.92;;;26.20;80.40;;;;;;5091122;27;20072;-79
2023/09/12 09:33:15;;;;;;;5.93;3.25;;;26.20;78.40;;;;;;5069995;28;20135;-79
2023/09/12 09:35:45;;;;;;;5.60;2.85;;;26.20;77.80;;;;;;5072584;28;20398;-80
2023/09/12 09:38:16;;;;;;;6.78;2.90;;;26.40;77.10;;;;;;5075893;28;20039;-79
2023/09/12 09:40:44;;;;;;;10.25;3.10;;;26.50;76.70;;;;;;5072586;28;20052;-79
2023/09/12 09:43:11;;;;;;;10.10;3.83;;;26.60;75.40;;;;;;5061540;28;20452;-81
2023/09/12 09:45:46;;;;;;;6.32;3.80;;;26.60;75.50;;;;;;5073824;28;20087;-80
2023/09/12 09:48:21;;;;;;;6.68;2.78;;;26.70;74.30;;;;;;5086700;28;20097;-79
2023/09/12 09:50:49;;;;;;;6.93;3.42;;;26.80;73.40;;;;;;5062270;28;20051;-77
2023/09/12 09:53:16;;;;;;;6.55;2.65;;;26.80;72.40;;;;;;5076086;28;20048;-78
2023/09/12 09:55:43;;;;;;;5.22;2.80;;;26.90;72.00;;;;;;5075103;28;20501;-79
2023/09/12 09:58:18;;;;;;;5.72;2.85;;;26.70;73.90;;;;;;5081825;28;20044;-79
2023/09/12 10:00:48;;;;;;;7.47;2.90;;;26.80;73.10;;;;;;5066003;28;20434;-79
2023/09/12 10:03:19;;;;;;;7.00;2.60;;;26.90;70.80;;;;;;5065783;28;20420;-79
2023/09/12 10:05:49;;;;;;;6.07;3.05;;;27.00;71.20;;;;;;5060694;28;20055;-79
2023/09/12 10:08:18;;;;;;;7.50;3.45;;;27.10;72.80;;;;;;5078637;28;20109;-78
2023/09/12 10:10:45;;;;;;;6.38;2.70;;;27.20;71.40;;;;;;5062353;28;20051;-79
2023/09/12 10:13:14;;;;;;;9.07;3.03;;;27.20;70.70;;;;;;5076829;28;20076;-78
2023/09/12 10:15:44;;;;;;;9.57;3.20;;;27.20;70.10;;;;;;5079773;28;20044;-80
2023/09/12 10:18:18;;;;;;;6.05;3.20;;;27.20;72.40;;;;;;5091767;27;20044;-79
2023/09/12 10:21:03;;;;;;;7.28;2.53;;;27.30;70.60;;;;;;5080486;28;20047;-80
2023/09/12 10:23:41;;;;;;;4.97;2.90;;;27.30;70.10;;;;;;5089501;28;22805;-78
2023/09/12 10:26:13;;;;;;;6.28;3.28;;;27.30;70.60;;;;;;5076749;28;20144;-79
2023/09/12 10:28:41;;;;;;;8.77;3.35;;;27.40;70.50;;;;;;5077259;28;20071;-80
2023/09/12 10:31:12;;;;;;;10.02;3.17;;;27.60;70.60;;;;;;5081403;28;20482;-78
2023/09/12 10:33:40;;;;;;;7.85;2.97;;;27.50;70.60;;;;;;5079919;28;20137;-79
2023/09/12 10:36:09;;;;;;;8.00;3.20;;;27.40;68.90;;;;;;5079006;28;20167;-79
2023/09/12 10:38:47;;;;;;;6.50;3.00;;;27.50;70.20;;;;;;5065788;28;20071;-77
2023/09/12 10:41:16;;;;;;;4.82;2.50;;;27.60;70.20;;;;;;5079288;28;20040;-80
2023/09/12 10:43:50;;;;;;;4.03;2.72;;;27.70;70.90;;;;;;5079549;28;20125;-78
2023/09/12 10:46:18;;;;;;;7.13;2.63;;;27.80;69.60;;;;;;5088669;28;20048;-79
2023/09/12 10:48:45;;;;;;;13.75;3.85;;;27.80;68.80;;;;;;5071647;28;20608;-77
2023/09/12 10:51:13;;;;;;;10.40;2.80;;;27.80;69.00;;;;;;5079377;28;20087;-78
2023/09/12 10:53:50;;;;;;;7.38;2.95;;;27.80;67.90;;;;;;5060596;28;20196;-79
2023/09/12 10:56:21;;;;;;;8.15;2.83;;;27.80;67.20;;;;;;5089036;28;20498;-78
2023/09/12 10:59:04;;;;;;;6.88;2.55;;;27.90;67.50;;;;;;5058056;28;20408;-80
2023/09/12 11:01:38;;;;;;;4.50;2.58;;;28.00;67.50;;;;;;5060879;28;20047;-79
2023/09/12 11:04:24;;;;;;;7.10;2.70;;;28.00;66.90;;;;;;5085681;28;20127;-78
2023/09/12 11:06:51;;;;;;;6.60;3.15;;;28.00;66.30;;;;;;5074709;28;20182;-79
2023/09/12 11:09:23;;;;;;;6.90;2.28;;;28.10;65.70;;;;;;5074584;28;20053;-78
2023/09/12 11:12:02;;;;;;;4.80;2.38;;;28.10;64.60;;;;;;5091614;27;20114;-79
2023/09/12 11:14:30;;;;;;;6.55;2.63;;;28.10;66.00;;;;;;5078053;28;20056;-80
2023/09/12 11:17:10;;;;;;;6.63;2.58;;;28.20;64.80;;;;;;5078869;28;20067;-78
2023/09/12 11:19:54;;;;;;;6.00;2.30;;;28.10;65.10;;;;;;5079357;28;20102;-78
2023/09/12 11:22:22;;;;;;;8.02;3.00;;;28.20;66.20;;;;;;5064626;28;20056;-78
2023/09/12 11:24:49;;;;;;;10.57;4.28;;;28.30;65.60;;;;;;5073569;28;20717;-78
2023/09/12 11:27:17;;;;;;;6.47;2.67;;;28.30;64.50;;;;;;5069403;28;20056;-80
2023/09/12 11:29:45;;;;;;;3.90;2.53;;;28.20;64.70;;;;;;5056680;28;20104;-81
2023/09/12 11:32:30;;;;;;;6.00;2.35;;;28.30;63.90;;;;;;5076494;28;20058;-80
2023/09/12 11:35:04;;;;;;;8.32;2.63;;;28.30;63.80;;;;;;5088084;28;20057;-79
2023/09/12 11:37:33;;;;;;;4.50;2.38;;;28.40;64.40;;;;;;5078942;28;20127;-80
2023/09/12 11:40:00;;;;;;;4.82;2.28;;;28.30;65.80;;;;;;5086453;28;20070;-79
2023/09/12 11:42:27;;;;;;;9.38;2.88;;;28.40;64.50;;;;;;5063345;28;20125;-79
2023/09/12 11:44:55;;;;;;;7.18;2.65;;;28.30;63.80;;;;;;5070805;28;20052;-78
2023/09/12 11:47:24;;;;;;;7.13;2.28;;;28.50;64.40;;;;;;5062987;28;20056;-78
2023/09/12 11:49:51;;;;;;;5.00;2.40;;;28.60;63.60;;;;;;5080335;28;20054;-77
2023/09/12 11:52:19;;;;;;;7.70;2.75;;;28.60;65.40;;;;;;5083298;28;20055;-79
2023/09/12 11:54:47;;;;;;;5.93;2.10;;;28.60;63.20;;;;;;5065702;28;22808;-78
2023/09/12 11:57:15;;;;;;;6.32;3.17;;;28.60;62.80;;;;;;5054905;28;20044;-79
2023/09/12 11:59:45;;;;;;;6.82;2.63;;;28.60;63.00;;;;;;5082298;28;20053;-79
2023/09/12 12:02:12;;;;;;;8.20;2.70;;;28.70;62.10;;;;;;5073021;28;20958;-79
2023/09/12 12:04:39;;;;;;;8.35;2.55;;;28.70;62.30;;;;;;5079132;28;20390;-79
2023/09/12 12:07:07;;;;;;;7.93;2.97;;;28.60;61.60;;;;;;5063106;28;20481;-82
2023/09/12 12:09:34;;;;;;;5.97;2.53;;;28.60;64.70;;;;;;5072476;28;20225;-81
2023/09/12 12:12:11;;;;;;;9.00;2.35;;;28.70;62.00;;;;;;5058989;28;20046;-82
2023/09/12 12:14:40;;;;;;;8.02;3.17;;;28.70;62.00;;;;;;5077991;28;20072;-80
2023/09/12 12:17:12;;;;;;;8.27;3.38;;;28.70;61.60;;;;;;5068334;28;20052;-79
2023/09/12 12:19:39;;;;;;;4.22;2.80;;;28.60;61.50;;;;;;5087380;28;20067;-79
2023/09/12 12:22:07;;;;;;;9.13;2.22;;;28.70;63.80;;;;;;5084317;28;20060;-79
2023/09/12 12:25:07;;;;;;;5.07;2.17;;;28.60;63.60;;;;;;5073949;28;20053;-79
2023/09/12 12:27:38;;;;;;;5.40;2.10;;;28.80;63.30;;;;;;5057294;28;20098;-77
2023/09/12 12:30:08;;;;;;;5.72;3.10;;;28.70;62.50;;;;;;5059852;28;20041;-78
2023/09/12 12:32:43;;;;;;;6.72;2.58;;;28.80;64.50;;;;;;5073607;28;20036;-79
2023/09/12 12:35:17;;;;;;;7.28;2.55;;;28.80;62.50;;;;;;5061374;28;20127;-79
2023/09/12 12:38:04;;;;;;;6.75;2.25;;;28.80;62.60;;;;;;5065642;28;20048;-81
2023/09/12 12:40:40;;;;;;;3.10;1.98;;;28.90;64.00;;;;;;5087768;28;20098;-79
2023/09/12 12:43:22;;;;;;;8.35;2.47;;;28.90;63.60;;;;;;5064392;28;20036;-80
2023/09/12 12:45:57;;;;;;;7.65;2.50;;;28.90;62.30;;;;;;5065449;28;20079;-80
2023/09/12 12:48:31;;;;;;;10.00;2.47;;;28.90;62.20;;;;;;5079074;28;20049;-80
2023/09/12 12:50:59;;;;;;;5.30;2.05;;;28.80;62.40;;;;;;5071096;28;20048;-78